This is the latest recevied weather packets stored in our database for station/object KE8WAY. If no packets are shown the sender has not sent any weather packets the latest 1 day(s).
| Time | Temp. | Humidity | Pressure | Rain* | Wind** | Luminosity | Snow |
|---|---|---|---|---|---|---|---|
| 1778030595 | 9.44° C | 92% | 1007.9 hPa | 1.27 mm | - | 0 W/m² | - |
| 1778030292 | 9.44° C | 92% | 1007.8 hPa | 0 mm | - | 0 W/m² | - |
| 1778029686 | 9.44° C | 92% | 1007.6 hPa | 0 mm | - | 0 W/m² | - |
| 1778029384 | 9.44° C | 92% | 1007.5 hPa | 0 mm | - | 0 W/m² | - |
| 1778028777 | 9.44° C | 92% | 1007.6 hPa | 1.78 mm | - | 0 W/m² | - |
| 1778028473 | 9.44° C | 92% | 1007.6 hPa | 1.78 mm | - | 0 W/m² | - |
| 1778027867 | 9.44° C | 92% | 1007.8 hPa | 1.27 mm | - | 0 W/m² | - |
| 1778027260 | 9.44° C | 92% | 1007.7 hPa | 1.27 mm | - | 0 W/m² | - |
| 1778026956 | 9.44° C | 92% | 1007.7 hPa | 1.78 mm | - | 0 W/m² | - |
| 1778025139 | 9.44° C | 91% | 1007.5 hPa | 1.78 mm | - | 10 W/m² | - |
| 1778024533 | 9.44° C | 91% | 1007.8 hPa | 1.27 mm | - | 8 W/m² | - |
| 1778024229 | 10° C | 91% | 1007.6 hPa | 1.27 mm | - | 14 W/m² | - |
| 1778023018 | 10° C | 89% | 1007.2 hPa | 1.27 mm | - | 10 W/m² | - |
| 1778020595 | 10° C | 88% | 1007.4 hPa | 1.27 mm | - | 32 W/m² | - |
| 1778019987 | 10° C | 87% | 1007.3 hPa | 1.78 mm | - | 50 W/m² | - |
| 1778002105 | 15.56° C | 55% | 1006.6 hPa | 0 mm | - | 168 W/m² | - |
| 1778001496 | 15.56° C | 52% | 1006.7 hPa | 0 mm | - | 136 W/m² | - |
| 1778000587 | 15.56° C | 52% | 1006.7 hPa | 0 mm | - | 141 W/m² | - |
| 1778000282 | 15.56° C | 53% | 1006.9 hPa | 0 mm | - | 183 W/m² | - |
| 1777999978 | 15.56° C | 54% | 1006.9 hPa | 0 mm | - | 261 W/m² | - |
| 1777998465 | 16.11° C | 58% | 1006.9 hPa | 0 mm | - | 215 W/m² | - |
| 1777997556 | 16.11° C | 64% | 1006.7 hPa | 0 mm | - | 112 W/m² | - |
| 1777995736 | 16.11° C | 68% | 1006.5 hPa | 0 mm | - | 187 W/m² | - |
| 1777995130 | 16.67° C | 69% | 1006.3 hPa | 0 mm | - | 125 W/m² | - |
| 1777993309 | 16.67° C | 70% | 1006.1 hPa | 0 mm | - | 97 W/m² | - |
* Rain latest hour (hover to see other rain measurements)
** Current wind speed in m/s (hover to see current wind gust speed)